Time;durP1;ratioP1;P1;durP2;ratioP2;P2;SDS_P1;SDS_P2;PMS_P1;PMS_P2;Temp;Humidity;BMP_temperature;BMP_pressure;BME280_temperature;BME280_humidity;BME280_pressure;Samples;Min_cycle;Max_cycle;Signal;HPM_P1;HPM_P2
2023/03/07 00:01:28;;;;;;;9.45;5.18;;;3.10;99.90;;;;;;5050658;28;20059;-76
2023/03/07 00:03:55;;;;;;;8.43;4.28;;;3.00;99.90;;;;;;5057484;28;20107;-76
2023/03/07 00:06:20;;;;;;;8.88;5.13;;;3.00;99.90;;;;;;5056219;28;20111;-75
2023/03/07 00:09:00;;;;;;;7.00;4.15;;;3.00;99.90;;;;;;5053121;28;20037;-76
2023/03/07 00:11:26;;;;;;;9.23;4.85;;;3.00;99.90;;;;;;5040140;28;20084;-77
2023/03/07 00:13:53;;;;;;;7.50;3.97;;;3.30;99.90;;;;;;5034444;28;20100;-78
2023/03/07 00:16:21;;;;;;;7.57;4.80;;;3.10;99.90;;;;;;5052839;28;20510;-76
2023/03/07 00:18:48;;;;;;;8.00;4.13;;;3.10;99.90;;;;;;5039919;28;20094;-74
2023/03/07 00:21:16;;;;;;;5.40;3.10;;;3.10;99.90;;;;;;5053160;28;20084;-76
2023/03/07 00:23:43;;;;;;;8.40;4.45;;;3.10;99.90;;;;;;5056829;28;20075;-75
2023/03/07 00:26:20;;;;;;;5.88;3.30;;;3.10;99.90;;;;;;5053192;28;20104;-73
2023/03/07 00:28:48;;;;;;;6.57;3.58;;;3.10;99.90;;;;;;5037315;28;20091;-76
2023/03/07 00:31:14;;;;;;;4.97;3.03;;;3.30;99.90;;;;;;5052731;28;20051;-77
2023/03/07 00:33:40;;;;;;;5.72;3.05;;;3.10;99.90;;;;;;5056171;28;20047;-76
2023/03/07 00:36:12;;;;;;;3.90;2.38;;;3.10;99.90;;;;;;5039018;28;20128;-77
2023/03/07 00:38:38;;;;;;;3.88;1.90;;;3.10;99.90;;;;;;5056110;28;20052;-77
2023/03/07 00:41:06;;;;;;;3.40;1.92;;;3.10;99.90;;;;;;5057810;28;20041;-75
2023/03/07 00:43:33;;;;;;;3.40;1.73;;;3.10;99.90;;;;;;5056139;28;20041;-79
2023/03/07 00:45:59;;;;;;;2.83;1.90;;;3.10;99.90;;;;;;5058733;28;20056;-77
2023/03/07 00:48:24;;;;;;;3.20;1.67;;;3.10;99.90;;;;;;5040175;28;20041;-77
2023/03/07 00:50:51;;;;;;;2.92;1.65;;;3.10;99.90;;;;;;5058168;28;20128;-77
2023/03/07 00:53:18;;;;;;;3.45;1.60;;;3.10;99.90;;;;;;5056709;28;20053;-79
2023/03/07 00:55:55;;;;;;;3.40;1.58;;;3.10;99.90;;;;;;5057638;28;20064;-76
2023/03/07 00:58:21;;;;;;;4.05;1.63;;;3.10;99.90;;;;;;5057618;28;20104;-79
2023/03/07 01:00:46;;;;;;;2.63;1.60;;;3.10;99.90;;;;;;5037910;28;20079;-78
2023/03/07 01:03:12;;;;;;;3.50;1.73;;;3.10;99.90;;;;;;5042207;28;20048;-78
2023/03/07 01:05:41;;;;;;;2.17;1.20;;;3.10;99.90;;;;;;5054440;28;20048;-77
2023/03/07 01:08:06;;;;;;;2.92;1.52;;;3.10;99.90;;;;;;5055975;28;20559;-77
2023/03/07 01:10:33;;;;;;;3.10;1.50;;;3.10;99.90;;;;;;5056789;28;20071;-74
2023/03/07 01:13:00;;;;;;;2.55;0.90;;;3.10;99.90;;;;;;5063534;28;20126;-76
2023/03/07 01:15:26;;;;;;;2.15;1.00;;;3.10;99.90;;;;;;5055504;28;20055;-76
2023/03/07 01:17:52;;;;;;;2.70;1.25;;;3.10;99.90;;;;;;5055987;28;20609;-77
2023/03/07 01:20:18;;;;;;;2.95;1.58;;;3.10;99.90;;;;;;5059578;28;20124;-78
2023/03/07 01:22:44;;;;;;;2.20;0.98;;;3.00;99.90;;;;;;5056234;28;20642;-79
2023/03/07 01:25:10;;;;;;;1.45;0.80;;;3.10;99.90;;;;;;5061408;28;20355;-77
2023/03/07 01:27:36;;;;;;;2.10;0.85;;;3.10;99.90;;;;;;5039617;28;20033;-77
2023/03/07 01:30:04;;;;;;;1.45;0.90;;;3.00;99.90;;;;;;5055869;28;20049;-77
2023/03/07 01:32:29;;;;;;;2.22;0.88;;;3.00;99.90;;;;;;5057677;28;20048;-76
2023/03/07 01:34:55;;;;;;;1.63;0.88;;;3.00;99.90;;;;;;5055042;28;20045;-80
2023/03/07 01:37:21;;;;;;;2.97;1.00;;;3.10;99.90;;;;;;5041554;28;20545;-76
2023/03/07 01:39:52;;;;;;;2.35;1.20;;;3.20;99.90;;;;;;5055748;28;20041;-81
2023/03/07 01:42:20;;;;;;;3.80;1.15;;;3.20;99.90;;;;;;5067755;28;20090;-78
2023/03/07 01:45:00;;;;;;;3.05;1.00;;;3.20;99.90;;;;;;5055941;28;20911;-78
2023/03/07 01:47:25;;;;;;;2.75;1.15;;;3.20;99.90;;;;;;5060972;28;20073;-80
2023/03/07 01:49:51;;;;;;;2.65;1.05;;;3.50;99.90;;;;;;5056324;28;20048;-76
2023/03/07 01:52:30;;;;;;;2.75;1.05;;;3.30;99.90;;;;;;5055713;28;20038;-81
2023/03/07 01:55:02;;;;;;;2.45;0.95;;;3.40;99.90;;;;;;5057720;28;20064;-79
2023/03/07 01:57:33;;;;;;;2.70;0.90;;;3.20;99.90;;;;;;5060231;28;20590;-78
2023/03/07 02:00:08;;;;;;;2.03;1.08;;;3.30;99.90;;;;;;5058473;28;20052;-77
2023/03/07 02:02:41;;;;;;;1.55;0.82;;;3.40;99.90;;;;;;5055399;28;20060;-77
2023/03/07 02:05:14;;;;;;;2.53;1.00;;;3.10;99.90;;;;;;5054173;28;20155;-78
2023/03/07 02:07:45;;;;;;;1.70;1.00;;;3.20;99.90;;;;;;5058427;28;20064;-77
2023/03/07 02:10:13;;;;;;;4.32;1.10;;;3.00;99.90;;;;;;5056148;28;20067;-74
2023/03/07 02:12:40;;;;;;;3.28;0.90;;;3.00;99.90;;;;;;5060614;28;20052;-76
2023/03/07 02:15:09;;;;;;;1.70;0.98;;;3.00;99.90;;;;;;5054939;28;20500;-76
2023/03/07 02:17:35;;;;;;;2.70;1.00;;;2.90;99.90;;;;;;5054547;28;20045;-76
2023/03/07 02:20:22;;;;;;;3.30;1.08;;;2.90;99.90;;;;;;5055469;28;20060;-77
2023/03/07 02:22:48;;;;;;;2.97;1.10;;;2.80;99.90;;;;;;5056175;28;20380;-76
2023/03/07 02:25:26;;;;;;;3.40;0.95;;;2.70;99.90;;;;;;5059900;28;20045;-79
2023/03/07 02:27:54;;;;;;;1.30;0.80;;;2.70;99.90;;;;;;5060706;28;20108;-77
2023/03/07 02:30:20;;;;;;;2.30;1.00;;;2.80;99.90;;;;;;5040395;28;20088;-77
2023/03/07 02:32:46;;;;;;;4.53;2.08;;;2.60;99.90;;;;;;5054407;28;20091;-80
2023/03/07 02:35:21;;;;;;;1.90;0.88;;;2.80;99.90;;;;;;5052781;28;20064;-77
2023/03/07 02:37:50;;;;;;;3.38;1.10;;;2.60;99.90;;;;;;5065203;28;20048;-76
2023/03/07 02:40:20;;;;;;;1.92;1.00;;;2.60;99.90;;;;;;5053897;28;20412;-77
2023/03/07 02:42:47;;;;;;;3.63;1.00;;;2.90;99.90;;;;;;5056469;28;20095;-77
2023/03/07 02:45:16;;;;;;;3.15;1.05;;;2.60;99.90;;;;;;5054326;28;20097;-78
2023/03/07 02:47:43;;;;;;;3.47;1.10;;;2.70;99.90;;;;;;5055090;28;20051;-78
2023/03/07 02:50:11;;;;;;;3.17;1.15;;;2.70;99.90;;;;;;5041065;28;20131;-78
2023/03/07 02:52:37;;;;;;;3.13;1.42;;;2.70;99.90;;;;;;5053333;28;20652;-77
2023/03/07 02:55:03;;;;;;;2.80;1.20;;;2.70;99.90;;;;;;5054213;28;20044;-76
2023/03/07 02:57:29;;;;;;;2.53;1.20;;;2.60;99.90;;;;;;5054218;28;20408;-76
2023/03/07 02:59:55;;;;;;;3.88;1.08;;;2.60;99.90;;;;;;5054307;28;20064;-76
2023/03/07 03:02:20;;;;;;;3.55;1.23;;;2.60;99.90;;;;;;5036717;28;20072;-76
2023/03/07 03:04:46;;;;;;;6.30;1.30;;;2.50;99.90;;;;;;5057086;28;20064;-77
2023/03/07 03:07:12;;;;;;;4.20;1.17;;;2.50;99.90;;;;;;5054824;28;20040;-76
2023/03/07 03:09:37;;;;;;;2.95;1.10;;;2.60;99.90;;;;;;5053768;28;20049;-76
2023/03/07 03:12:03;;;;;;;4.57;1.38;;;2.50;99.90;;;;;;5057920;28;20052;-78
2023/03/07 03:14:29;;;;;;;4.10;1.20;;;2.50;99.90;;;;;;5036700;28;20109;-75
2023/03/07 03:16:55;;;;;;;3.28;1.27;;;2.50;99.90;;;;;;5054036;28;20053;-76
2023/03/07 03:19:21;;;;;;;2.50;1.20;;;2.40;99.90;;;;;;5055850;28;20056;-75
2023/03/07 03:21:47;;;;;;;2.15;1.25;;;2.40;99.90;;;;;;5054739;28;20047;-75
2023/03/07 03:24:13;;;;;;;7.60;1.58;;;2.50;99.90;;;;;;5055925;28;20049;-75
2023/03/07 03:26:39;;;;;;;5.32;1.50;;;2.90;99.90;;;;;;5057846;28;20106;-76
2023/03/07 03:29:05;;;;;;;2.70;1.35;;;2.50;99.90;;;;;;5067730;28;20045;-77
2023/03/07 03:31:31;;;;;;;4.95;1.00;;;2.60;99.90;;;;;;5053542;28;20071;-77
2023/03/07 03:33:58;;;;;;;2.22;1.52;;;2.50;99.90;;;;;;5058381;28;20170;-77
2023/03/07 03:36:25;;;;;;;4.15;0.95;;;2.50;99.90;;;;;;5054435;28;20052;-75
2023/03/07 03:38:55;;;;;;;2.40;1.00;;;2.50;99.90;;;;;;5056472;28;20105;-76
2023/03/07 03:41:22;;;;;;;4.43;1.20;;;2.50;99.90;;;;;;5056061;28;20084;-76
2023/03/07 03:43:47;;;;;;;1.75;1.00;;;2.80;99.90;;;;;;5052362;28;20113;-77
2023/03/07 03:46:15;;;;;;;6.10;1.20;;;2.50;99.90;;;;;;5059149;28;20076;-75
2023/03/07 03:48:41;;;;;;;3.67;1.02;;;2.50;99.90;;;;;;5052784;28;20473;-76
2023/03/07 03:51:09;;;;;;;4.32;1.23;;;2.40;99.90;;;;;;5054487;28;20092;-78
2023/03/07 03:53:37;;;;;;;4.38;1.10;;;2.50;99.90;;;;;;5054081;28;20044;-76
2023/03/07 03:56:11;;;;;;;5.05;1.13;;;2.60;99.90;;;;;;5053399;28;20053;-77
2023/03/07 03:58:38;;;;;;;2.08;0.68;;;2.40;99.90;;;;;;5054598;28;20055;-76
2023/03/07 04:01:06;;;;;;;3.80;1.20;;;2.40;99.90;;;;;;5052855;28;20049;-78
2023/03/07 04:03:37;;;;;;;11.40;1.70;;;2.40;99.90;;;;;;5054143;28;20083;-78
2023/03/07 04:06:08;;;;;;;2.78;0.90;;;2.40;99.90;;;;;;5055205;28;20396;-78
2023/03/07 04:08:34;;;;;;;4.20;1.00;;;2.30;99.90;;;;;;5040516;28;20374;-78
2023/03/07 04:11:00;;;;;;;3.17;1.00;;;2.40;99.90;;;;;;5060755;28;20037;-79
2023/03/07 04:13:26;;;;;;;2.53;1.08;;;2.40;99.90;;;;;;5058064;28;20109;-76
2023/03/07 04:15:53;;;;;;;4.13;1.10;;;2.40;99.90;;;;;;5065300;28;20441;-77
2023/03/07 04:18:20;;;;;;;3.03;1.02;;;2.40;99.90;;;;;;5061345;28;20048;-77
2023/03/07 04:20:48;;;;;;;3.40;2.20;;;2.40;99.90;;;;;;5075550;28;20080;-77
2023/03/07 04:23:18;;;;;;;4.93;1.17;;;2.40;99.90;;;;;;5058627;28;20105;-76
2023/03/07 04:25:54;;;;;;;6.70;1.35;;;2.30;99.90;;;;;;5075340;28;20076;-75
2023/03/07 04:28:21;;;;;;;6.63;1.20;;;2.30;99.90;;;;;;5057015;28;20626;-80
2023/03/07 04:30:48;;;;;;;6.53;1.20;;;2.40;99.90;;;;;;5055961;28;20056;-78
2023/03/07 04:33:15;;;;;;;4.90;0.90;;;2.30;99.90;;;;;;5059588;28;20049;-79
2023/03/07 04:35:41;;;;;;;2.33;0.90;;;2.20;99.90;;;;;;5042308;28;20095;-78
2023/03/07 04:38:07;;;;;;;5.15;1.40;;;2.60;99.90;;;;;;5064221;28;20063;-79
2023/03/07 04:40:34;;;;;;;3.55;0.93;;;2.20;99.90;;;;;;5058082;28;20128;-79
2023/03/07 04:43:00;;;;;;;3.72;1.10;;;2.20;99.90;;;;;;5056944;28;20049;-77
2023/03/07 04:45:26;;;;;;;2.00;0.90;;;2.40;99.90;;;;;;5058391;28;20044;-75
2023/03/07 04:47:52;;;;;;;6.57;1.40;;;2.20;99.90;;;;;;5059454;28;20516;-76
2023/03/07 04:50:18;;;;;;;4.75;1.40;;;2.20;99.90;;;;;;5057029;28;20041;-77
2023/03/07 04:52:44;;;;;;;8.70;1.10;;;2.30;99.90;;;;;;5056390;28;20083;-74
2023/03/07 04:55:11;;;;;;;4.15;1.00;;;2.30;99.90;;;;;;5057529;28;20044;-80
2023/03/07 04:57:36;;;;;;;3.38;1.15;;;2.60;99.90;;;;;;5056923;28;20049;-76
2023/03/07 05:00:08;;;;;;;4.05;1.10;;;2.40;99.90;;;;;;5057176;28;20071;-78
2023/03/07 05:02:34;;;;;;;3.42;2.25;;;2.30;99.90;;;;;;5058266;28;20082;-80
2023/03/07 05:05:00;;;;;;;8.43;2.28;;;2.30;99.90;;;;;;5058005;28;20105;-78
2023/03/07 05:07:26;;;;;;;3.95;1.67;;;2.30;99.90;;;;;;5057634;28;20069;-78
2023/03/07 05:09:51;;;;;;;14.23;2.67;;;2.40;99.90;;;;;;5038542;28;20068;-79
2023/03/07 05:12:17;;;;;;;3.50;0.80;;;2.30;99.90;;;;;;5061346;28;20153;-78
2023/03/07 05:14:43;;;;;;;4.90;1.23;;;2.40;99.90;;;;;;5058924;28;20068;-79
2023/03/07 05:17:09;;;;;;;3.58;1.17;;;2.70;99.90;;;;;;5059034;28;20039;-81
2023/03/07 05:19:34;;;;;;;4.75;0.88;;;2.30;99.90;;;;;;5066839;28;20052;-76
2023/03/07 05:22:01;;;;;;;9.05;1.65;;;2.50;99.90;;;;;;5057710;28;20064;-78
2023/03/07 05:24:27;;;;;;;5.75;1.45;;;2.30;99.90;;;;;;5056463;28;20068;-80
2023/03/07 05:26:52;;;;;;;4.63;1.52;;;2.30;99.90;;;;;;5056379;28;20049;-80
2023/03/07 05:29:18;;;;;;;16.20;2.85;;;2.40;99.90;;;;;;5058856;28;20076;-80
2023/03/07 05:31:44;;;;;;;4.22;1.00;;;2.40;99.90;;;;;;5055735;28;20516;-80
2023/03/07 05:34:10;;;;;;;7.75;1.50;;;2.30;99.90;;;;;;5061275;28;20047;-79
2023/03/07 05:36:36;;;;;;;2.88;1.13;;;2.40;99.90;;;;;;5060083;28;20049;-75
2023/03/07 05:39:02;;;;;;;5.43;1.45;;;2.40;99.90;;;;;;5060855;28;20052;-79
2023/03/07 05:41:27;;;;;;;6.75;1.17;;;2.40;99.90;;;;;;5056533;28;20041;-78
2023/03/07 05:43:54;;;;;;;4.22;1.30;;;2.40;99.90;;;;;;5055895;28;20397;-78
2023/03/07 05:46:20;;;;;;;4.07;0.90;;;2.50;99.90;;;;;;5055439;28;20051;-78
2023/03/07 05:48:46;;;;;;;3.45;0.90;;;2.40;99.90;;;;;;5038408;28;20045;-78
2023/03/07 05:51:11;;;;;;;2.67;1.02;;;2.30;99.90;;;;;;5040138;28;20077;-79
2023/03/07 05:53:37;;;;;;;3.90;1.00;;;2.70;99.90;;;;;;5056804;28;20055;-79
2023/03/07 05:56:03;;;;;;;4.32;1.05;;;2.40;99.90;;;;;;5039498;28;20045;-77
2023/03/07 05:58:29;;;;;;;3.58;1.00;;;2.30;99.90;;;;;;5040266;28;20080;-79
2023/03/07 06:00:54;;;;;;;4.97;1.17;;;2.30;99.90;;;;;;5054948;28;20076;-80
2023/03/07 06:03:20;;;;;;;6.13;1.40;;;2.30;99.90;;;;;;5056513;28;20063;-79
2023/03/07 06:05:49;;;;;;;5.70;1.00;;;2.40;99.90;;;;;;5055330;28;20052;-78
2023/03/07 06:08:15;;;;;;;4.88;2.03;;;2.40;99.90;;;;;;5057319;28;20510;-80
2023/03/07 06:10:41;;;;;;;3.13;0.80;;;1.70;99.90;;;;;;5037822;28;20041;-79
2023/03/07 06:13:16;;;;;;;2.53;0.88;;;2.30;99.90;;;;;;5040464;28;20064;-80
2023/03/07 06:15:43;;;;;;;2.97;1.10;;;2.40;99.90;;;;;;5059579;28;20056;-79
2023/03/07 06:18:09;;;;;;;3.72;1.00;;;2.30;99.90;;;;;;5055304;28;20715;-79
2023/03/07 06:20:35;;;;;;;4.20;0.80;;;2.50;99.90;;;;;;5057502;28;20063;-80
2023/03/07 06:23:01;;;;;;;3.35;1.05;;;2.30;99.90;;;;;;5057777;28;20553;-79
2023/03/07 06:25:27;;;;;;;2.92;0.90;;;2.60;99.90;;;;;;5054729;28;20356;-78
2023/03/07 06:27:58;;;;;;;4.07;0.88;;;2.30;99.90;;;;;;5054650;28;20104;-79
2023/03/07 06:30:24;;;;;;;4.93;0.90;;;2.30;99.90;;;;;;5040969;28;20049;-79
2023/03/07 06:32:50;;;;;;;4.53;1.00;;;2.40;99.90;;;;;;5055024;28;20048;-79
2023/03/07 06:35:15;;;;;;;3.47;1.33;;;2.40;99.90;;;;;;5053904;28;20041;-78
2023/03/07 06:37:41;;;;;;;5.28;1.10;;;2.40;99.90;;;;;;5060429;28;20124;-79
2023/03/07 06:40:09;;;;;;;3.85;1.38;;;2.40;99.90;;;;;;5057636;28;20113;-77
2023/03/07 06:42:35;;;;;;;4.03;0.85;;;2.40;99.90;;;;;;5075680;28;20044;-80
2023/03/07 06:45:10;;;;;;;3.50;1.00;;;2.40;99.90;;;;;;5058901;28;20107;-79
2023/03/07 06:47:36;;;;;;;4.10;1.02;;;2.40;99.90;;;;;;5038380;28;20045;-78
2023/03/07 06:50:02;;;;;;;6.43;0.90;;;2.50;99.90;;;;;;5039115;28;20072;-80
2023/03/07 06:52:28;;;;;;;3.78;1.20;;;2.50;99.90;;;;;;5055715;28;20056;-77
2023/03/07 06:54:53;;;;;;;3.78;1.00;;;2.50;99.90;;;;;;5056795;28;20057;-76
2023/03/07 06:57:19;;;;;;;2.45;0.73;;;2.50;99.90;;;;;;5054568;28;20097;-73
2023/03/07 06:59:44;;;;;;;4.35;1.00;;;2.50;99.90;;;;;;5054803;28;20645;-78
2023/03/07 07:02:14;;;;;;;3.13;0.80;;;2.60;99.90;;;;;;5056917;28;20056;-76
2023/03/07 07:04:39;;;;;;;3.65;0.82;;;2.60;99.90;;;;;;5053626;28;20051;-78
2023/03/07 07:07:06;;;;;;;1.45;0.70;;;2.50;99.90;;;;;;5057957;28;20076;-76
2023/03/07 07:09:32;;;;;;;2.38;0.90;;;2.80;99.90;;;;;;5053865;28;20055;-78
2023/03/07 07:11:58;;;;;;;6.28;1.67;;;2.60;99.90;;;;;;5054525;28;20053;-78
2023/03/07 07:14:24;;;;;;;3.35;0.70;;;2.50;99.90;;;;;;5060846;28;20118;-78
2023/03/07 07:16:50;;;;;;;4.38;0.90;;;2.50;99.90;;;;;;5040608;28;20037;-79
2023/03/07 07:19:16;;;;;;;4.38;1.00;;;2.50;99.90;;;;;;5055192;28;20048;-76
2023/03/07 07:21:41;;;;;;;2.72;1.27;;;2.40;99.90;;;;;;5053759;28;20406;-74
2023/03/07 07:24:10;;;;;;;3.65;1.05;;;2.40;99.90;;;;;;5057684;28;20044;-79
2023/03/07 07:26:36;;;;;;;2.90;0.80;;;2.20;99.90;;;;;;5055010;28;20051;-77
2023/03/07 07:29:03;;;;;;;4.40;0.85;;;2.00;99.90;;;;;;5059359;28;20084;-76
2023/03/07 07:31:28;;;;;;;2.90;1.05;;;2.00;99.90;;;;;;5058501;28;20044;-77
2023/03/07 07:33:54;;;;;;;5.85;1.05;;;1.90;99.90;;;;;;5059038;28;20173;-79
2023/03/07 07:36:20;;;;;;;3.63;1.65;;;1.90;99.90;;;;;;5038046;28;20115;-77
2023/03/07 07:38:45;;;;;;;3.50;0.93;;;2.00;99.90;;;;;;5056557;28;20048;-77
2023/03/07 07:41:11;;;;;;;3.55;1.23;;;2.00;99.90;;;;;;5055129;28;20045;-78
2023/03/07 07:43:37;;;;;;;4.15;0.80;;;2.00;99.90;;;;;;5053718;28;20045;-78
2023/03/07 07:46:03;;;;;;;2.53;0.88;;;2.10;99.90;;;;;;5060575;28;20630;-79
2023/03/07 07:48:30;;;;;;;4.10;1.02;;;2.10;99.90;;;;;;5058732;28;20075;-80
2023/03/07 07:51:00;;;;;;;7.03;1.48;;;2.10;99.90;;;;;;5058696;28;20068;-78
2023/03/07 07:53:26;;;;;;;3.45;0.93;;;2.10;99.90;;;;;;5054633;28;20056;-78
2023/03/07 07:55:52;;;;;;;4.43;1.08;;;2.20;99.90;;;;;;5056018;28;20056;-78
2023/03/07 07:58:18;;;;;;;2.38;0.80;;;2.30;99.90;;;;;;5059842;28;20550;-80
2023/03/07 08:00:44;;;;;;;5.80;1.10;;;2.30;99.90;;;;;;5056785;28;20049;-78
2023/03/07 08:03:10;;;;;;;2.95;0.90;;;2.30;99.90;;;;;;5055654;28;20049;-79
2023/03/07 08:05:36;;;;;;;2.38;0.80;;;2.30;99.90;;;;;;5053294;28;20044;-78
2023/03/07 08:08:02;;;;;;;3.80;0.90;;;2.30;99.90;;;;;;5058073;28;20049;-78
2023/03/07 08:10:28;;;;;;;1.58;0.60;;;2.40;99.90;;;;;;5033655;28;20388;-79
2023/03/07 08:12:54;;;;;;;3.25;1.02;;;2.60;99.90;;;;;;5053860;28;20061;-78
2023/03/07 08:15:23;;;;;;;4.15;0.82;;;2.40;99.90;;;;;;5058526;28;20090;-76
2023/03/07 08:17:50;;;;;;;3.97;0.90;;;2.40;99.90;;;;;;5058120;28;20140;-78
2023/03/07 08:20:16;;;;;;;3.70;0.90;;;2.50;99.90;;;;;;5061843;28;20048;-77
2023/03/07 08:22:45;;;;;;;4.38;0.98;;;2.50;99.90;;;;;;5053720;28;20045;-78
2023/03/07 08:25:17;;;;;;;7.35;2.35;;;2.50;99.90;;;;;;5054978;28;20052;-77
2023/03/07 08:27:43;;;;;;;2.30;0.82;;;2.60;99.90;;;;;;5058162;28;20059;-74
2023/03/07 08:30:09;;;;;;;4.88;1.00;;;1.70;99.90;;;;;;5053540;28;20159;-76
2023/03/07 08:32:35;;;;;;;2.55;0.73;;;2.60;99.90;;;;;;5057159;28;20076;-77
2023/03/07 08:35:01;;;;;;;4.28;1.00;;;2.60;99.90;;;;;;5056663;28;20606;-77
2023/03/07 08:37:28;;;;;;;2.42;0.80;;;2.70;99.90;;;;;;5067561;28;20143;-77
2023/03/07 08:39:54;;;;;;;2.85;0.98;;;2.90;99.90;;;;;;5062594;28;20111;-77
2023/03/07 08:42:20;;;;;;;3.78;1.00;;;2.60;99.90;;;;;;5076070;28;20056;-78
2023/03/07 08:44:45;;;;;;;3.35;0.98;;;2.60;99.90;;;;;;5041069;28;20579;-75
2023/03/07 08:47:12;;;;;;;2.97;0.90;;;2.60;99.90;;;;;;5059285;28;20055;-76
2023/03/07 08:49:39;;;;;;;4.82;1.23;;;2.60;99.90;;;;;;5039413;28;20104;-76
2023/03/07 08:52:05;;;;;;;4.40;1.30;;;2.60;99.90;;;;;;5054598;28;20500;-76
2023/03/07 08:54:31;;;;;;;3.20;1.20;;;2.60;99.90;;;;;;5053439;28;20048;-75
2023/03/07 08:56:58;;;;;;;4.22;1.10;;;2.60;99.90;;;;;;5052523;28;20069;-76
2023/03/07 08:59:23;;;;;;;4.10;1.00;;;2.60;99.90;;;;;;5055239;28;20061;-76
2023/03/07 09:01:49;;;;;;;5.25;1.00;;;2.60;99.90;;;;;;5055709;28;20088;-76
2023/03/07 09:04:15;;;;;;;5.57;1.10;;;2.70;99.90;;;;;;5072985;28;20044;-76
2023/03/07 09:06:40;;;;;;;2.08;0.90;;;2.70;99.90;;;;;;5065183;28;20575;-74
2023/03/07 09:09:06;;;;;;;2.88;1.17;;;2.70;99.90;;;;;;5039638;28;20071;-77
2023/03/07 09:11:32;;;;;;;2.38;1.00;;;2.70;99.90;;;;;;5071608;28;20071;-76
2023/03/07 09:13:58;;;;;;;2.65;1.00;;;2.70;99.90;;;;;;5062930;28;20083;-75
2023/03/07 09:16:23;;;;;;;5.60;1.30;;;2.70;99.90;;;;;;5056957;28;20119;-76
2023/03/07 09:18:50;;;;;;;5.95;1.17;;;2.60;99.90;;;;;;5056483;28;20110;-76
2023/03/07 09:21:15;;;;;;;2.97;0.90;;;2.60;99.90;;;;;;5058288;28;20536;-77
2023/03/07 09:23:42;;;;;;;4.07;1.00;;;3.20;99.90;;;;;;5056618;28;20482;-76
2023/03/07 09:26:09;;;;;;;6.28;1.15;;;2.70;99.90;;;;;;5055680;28;20100;-74
2023/03/07 09:28:34;;;;;;;4.75;0.90;;;2.70;99.90;;;;;;5057276;28;20107;-76
2023/03/07 09:31:07;;;;;;;5.13;1.48;;;2.70;99.90;;;;;;5057756;28;20052;-77
2023/03/07 09:33:32;;;;;;;2.97;0.90;;;2.80;99.90;;;;;;5077593;28;20384;-75
2023/03/07 09:35:58;;;;;;;4.40;0.98;;;2.80;99.90;;;;;;5060922;28;20109;-76
2023/03/07 09:38:24;;;;;;;4.28;1.13;;;3.30;99.90;;;;;;5059416;28;20049;-75
2023/03/07 09:40:51;;;;;;;3.22;1.48;;;2.90;99.90;;;;;;5056787;28;20072;-76
2023/03/07 09:43:32;;;;;;;4.18;1.00;;;3.00;99.90;;;;;;5056894;28;20382;-77
2023/03/07 09:46:28;;;;;;;2.42;1.20;;;3.00;99.90;;;;;;5054682;28;20101;-77
2023/03/07 09:49:11;;;;;;;2.75;1.10;;;3.10;99.90;;;;;;5055554;28;20053;-76
2023/03/07 09:51:41;;;;;;;2.55;1.33;;;3.10;99.90;;;;;;5060401;28;20393;-76
2023/03/07 09:54:20;;;;;;;2.75;1.30;;;3.20;99.90;;;;;;5056573;28;20514;-74
2023/03/07 09:56:48;;;;;;;6.90;1.63;;;3.30;99.90;;;;;;5056789;28;20045;-76
2023/03/07 09:59:27;;;;;;;3.78;1.40;;;3.40;99.90;;;;;;5061873;28;20044;-77
2023/03/07 10:02:04;;;;;;;4.25;1.10;;;3.30;99.90;;;;;;5060254;28;20045;-76
2023/03/07 10:05:01;;;;;;;4.30;1.30;;;3.40;99.90;;;;;;5065675;28;20446;-75
2023/03/07 10:07:28;;;;;;;4.90;1.27;;;3.40;99.90;;;;;;5073224;28;20056;-76
2023/03/07 10:10:00;;;;;;;5.30;1.10;;;3.40;99.90;;;;;;5055104;28;20108;-76
2023/03/07 10:12:47;;;;;;;3.53;1.00;;;3.40;99.90;;;;;;5055911;28;20041;-74
2023/03/07 10:15:31;;;;;;;3.30;0.90;;;3.40;99.90;;;;;;5056257;28;20066;-73
2023/03/07 10:18:34;;;;;;;2.13;0.85;;;3.40;99.90;;;;;;5055975;28;20055;-73
2023/03/07 10:21:03;;;;;;;1.00;0.50;;;3.00;99.90;;;;;;5070857;28;20055;-74
2023/03/07 10:23:29;;;;;;;1.65;0.68;;;2.60;99.90;;;;;;5054982;28;20135;-73
2023/03/07 10:26:31;;;;;;;2.70;0.82;;;2.30;99.90;;;;;;5055228;28;20040;-74
2023/03/07 10:29:00;;;;;;;2.72;0.70;;;1.90;99.90;;;;;;5031868;28;20053;-74
2023/03/07 10:31:37;;;;;;;2.25;0.63;;;1.70;99.90;;;;;;5053581;28;20063;-74
2023/03/07 10:34:16;;;;;;;4.65;0.80;;;1.60;99.90;;;;;;5063121;28;20064;-72
2023/03/07 10:36:48;;;;;;;4.13;0.60;;;1.50;99.90;;;;;;5063773;28;20489;-73
2023/03/07 10:39:26;;;;;;;3.35;0.90;;;1.50;99.90;;;;;;5056422;28;20057;-73
2023/03/07 10:41:53;;;;;;;2.40;0.73;;;1.40;99.90;;;;;;5038729;28;20654;-72
2023/03/07 10:44:20;;;;;;;1.20;0.70;;;1.40;99.90;;;;;;5054334;28;20052;-72
2023/03/07 10:46:50;;;;;;;2.72;0.68;;;1.70;99.90;;;;;;5053528;28;20128;-71
2023/03/07 10:49:20;;;;;;;2.28;0.82;;;1.60;99.90;;;;;;5048212;28;20440;-72
2023/03/07 10:52:02;;;;;;;1.77;0.68;;;1.50;99.90;;;;;;5054207;28;20075;-72
2023/03/07 10:54:30;;;;;;;1.67;0.70;;;1.70;99.90;;;;;;5055192;28;20105;-73
2023/03/07 10:57:11;;;;;;;2.38;0.75;;;1.80;99.90;;;;;;5054043;28;20132;-73
2023/03/07 10:59:42;;;;;;;2.47;0.70;;;1.90;99.90;;;;;;5058893;28;20075;-73
2023/03/07 11:02:26;;;;;;;3.63;0.90;;;2.00;99.90;;;;;;5055156;28;20099;-72
2023/03/07 11:04:52;;;;;;;2.40;0.70;;;2.10;99.90;;;;;;5067825;28;20052;-72
2023/03/07 11:07:27;;;;;;;2.63;0.90;;;2.40;99.90;;;;;;5043431;28;20056;-73
2023/03/07 11:09:54;;;;;;;3.70;0.82;;;2.30;99.90;;;;;;5057260;28;20049;-73
2023/03/07 11:12:22;;;;;;;2.15;0.73;;;2.40;99.90;;;;;;5058317;28;20063;-74
2023/03/07 11:14:54;;;;;;;1.73;0.60;;;2.60;99.90;;;;;;5056974;28;20040;-73
2023/03/07 11:17:43;;;;;;;2.47;1.10;;;2.50;99.90;;;;;;5053110;28;20049;-73
2023/03/07 11:20:29;;;;;;;3.10;0.80;;;2.50;99.90;;;;;;5053947;28;20041;-73
2023/03/07 11:23:24;;;;;;;3.53;0.80;;;2.60;99.90;;;;;;5054783;28;20048;-73
2023/03/07 11:25:52;;;;;;;1.77;0.80;;;2.70;99.90;;;;;;5053127;28;20052;-74
2023/03/07 11:28:32;;;;;;;2.28;0.73;;;2.80;99.90;;;;;;5053612;28;20075;-73
2023/03/07 11:31:00;;;;;;;2.38;0.70;;;2.90;99.90;;;;;;5051265;28;20057;-73
2023/03/07 11:33:51;;;;;;;4.07;0.80;;;3.00;99.90;;;;;;5055163;28;20051;-73
2023/03/07 11:36:29;;;;;;;2.47;0.73;;;3.10;99.90;;;;;;5059960;28;20056;-73
2023/03/07 11:39:10;;;;;;;2.08;0.80;;;3.30;99.90;;;;;;5054898;28;20057;-74
2023/03/07 11:41:43;;;;;;;2.95;0.90;;;3.50;99.90;;;;;;5054977;28;20040;-73
2023/03/07 11:44:40;;;;;;;2.28;1.23;;;3.60;99.90;;;;;;5047549;28;20131;-74
2023/03/07 11:47:32;;;;;;;5.10;1.55;;;3.80;99.90;;;;;;5052541;28;20075;-74
2023/03/07 11:50:05;;;;;;;3.28;1.10;;;3.90;99.90;;;;;;5053483;28;20059;-73
2023/03/07 11:52:45;;;;;;;4.00;1.17;;;3.90;99.90;;;;;;5053054;28;20053;-74
2023/03/07 11:55:49;;;;;;;1.70;0.70;;;4.10;99.90;;;;;;5053341;28;20625;-73
2023/03/07 11:58:27;;;;;;;2.03;0.68;;;4.30;99.90;;;;;;5053376;28;20068;-73
2023/03/07 12:01:24;;;;;;;1.67;0.70;;;4.50;99.90;;;;;;5052464;28;20056;-73
2023/03/07 12:04:10;;;;;;;5.78;1.20;;;4.70;99.90;;;;;;5057520;28;20047;-73
2023/03/07 12:06:55;;;;;;;1.65;0.75;;;4.70;99.90;;;;;;5065427;28;20057;-74
2023/03/07 12:09:41;;;;;;;2.10;0.95;;;4.60;99.90;;;;;;5051936;28;20668;-73
2023/03/07 12:12:28;;;;;;;2.65;0.75;;;4.40;99.90;;;;;;5054894;28;20091;-75
2023/03/07 12:15:06;;;;;;;2.17;0.60;;;4.10;99.90;;;;;;5057236;28;20057;-73
2023/03/07 12:17:41;;;;;;;1.75;0.50;;;3.70;99.90;;;;;;5051053;28;20052;-75
2023/03/07 12:20:13;;;;;;;3.10;0.50;;;3.40;99.90;;;;;;5041166;28;20119;-76
2023/03/07 12:22:45;;;;;;;2.00;0.60;;;3.00;99.90;;;;;;5054753;28;20049;-74
2023/03/07 12:25:15;;;;;;;1.83;0.50;;;2.80;99.90;;;;;;5057190;28;20092;-76
2023/03/07 12:28:19;;;;;;;3.72;0.98;;;2.50;99.90;;;;;;5063166;28;20072;-74
2023/03/07 12:31:07;;;;;;;2.63;0.57;;;2.40;99.90;;;;;;5049054;28;20083;-74
2023/03/07 12:33:46;;;;;;;2.40;0.60;;;2.30;99.90;;;;;;5063009;28;20644;-74
2023/03/07 12:36:17;;;;;;;1.85;0.70;;;2.30;99.90;;;;;;5069431;28;20048;-72
2023/03/07 12:38:51;;;;;;;2.75;0.70;;;2.40;99.90;;;;;;5068213;28;20525;-74
2023/03/07 12:41:34;;;;;;;2.00;0.70;;;2.40;99.90;;;;;;5076551;28;20056;-74
2023/03/07 12:44:09;;;;;;;3.05;0.93;;;2.40;99.90;;;;;;5076296;28;20060;-76
2023/03/07 12:46:53;;;;;;;3.78;0.70;;;2.40;99.90;;;;;;5069979;28;20052;-76
2023/03/07 12:49:28;;;;;;;3.92;0.68;;;2.40;99.90;;;;;;5073825;28;20049;-75
2023/03/07 12:52:00;;;;;;;3.47;0.98;;;2.50;99.90;;;;;;5066548;28;20071;-76
2023/03/07 12:54:35;;;;;;;3.65;1.35;;;2.50;99.90;;;;;;5077946;28;20074;-75
2023/03/07 12:57:27;;;;;;;2.75;0.98;;;2.60;99.90;;;;;;5075887;28;20053;-74
2023/03/07 12:59:59;;;;;;;2.03;0.90;;;2.50;99.90;;;;;;5069654;28;20056;-74
2023/03/07 13:02:32;;;;;;;2.10;0.60;;;2.60;99.90;;;;;;5071235;28;20104;-74
2023/03/07 13:05:01;;;;;;;2.13;0.98;;;2.70;99.90;;;;;;5072790;28;20056;-75
2023/03/07 13:07:32;;;;;;;2.13;0.90;;;2.60;99.90;;;;;;5068313;28;20044;-75
2023/03/07 13:09:59;;;;;;;4.18;1.23;;;2.70;99.90;;;;;;5069246;28;20041;-74
2023/03/07 13:12:32;;;;;;;2.97;1.00;;;2.70;99.90;;;;;;5064380;28;20057;-74